Time;durP1;ratioP1;P1;durP2;ratioP2;P2;SDS_P1;SDS_P2;PMS_P1;PMS_P2;Temp;Humidity;BMP_temperature;BMP_pressure;BME280_temperature;BME280_humidity;BME280_pressure;Samples;Min_cycle;Max_cycle;Signal;HPM_P1;HPM_P2
2021/11/29 00:01:23;;;;;;;42.50;38.03;;;3.30;1.00;5.10;98879.00;;;;4981347;28;20934;-80
2021/11/29 00:03:52;;;;;;;45.80;40.37;;;3.30;1.00;5.10;98947.00;;;;4981490;28;20545;-80
2021/11/29 00:06:21;;;;;;;41.13;36.80;;;3.20;1.00;5.00;98949.00;;;;4994185;28;20508;-79
2021/11/29 00:08:50;;;;;;;35.20;31.60;;;3.20;1.00;5.00;98933.00;;;;4978699;28;20500;-81
2021/11/29 00:11:19;;;;;;;36.77;33.13;;;3.20;1.00;5.00;98932.00;;;;4967807;29;20542;-80
2021/11/29 00:13:49;;;;;;;40.97;36.70;;;3.30;1.00;5.00;98913.00;;;;4982274;28;20460;-79
2021/11/29 00:16:17;;;;;;;44.80;39.07;;;3.40;1.00;5.10;98951.00;;;;4987100;28;20454;-79
2021/11/29 00:18:46;;;;;;;43.90;39.27;;;3.30;1.00;5.10;98950.00;;;;4992337;28;20506;-80
2021/11/29 00:21:15;;;;;;;39.70;35.57;;;3.30;1.00;5.10;98950.00;;;;5004677;28;20484;-80
2021/11/29 00:23:45;;;;;;;38.13;34.30;;;3.30;1.00;5.10;98949.00;;;;4970746;29;20452;-80
2021/11/29 00:26:15;;;;;;;38.97;34.73;;;3.40;1.00;5.10;98954.00;;;;4986004;28;20464;-80
2021/11/29 00:28:43;;;;;;;39.80;35.67;;;3.40;1.00;5.10;98929.00;;;;4982027;28;20459;-78
2021/11/29 00:31:14;;;;;;;41.23;36.40;;;3.40;1.00;5.10;98951.00;;;;4994667;28;20520;-80
2021/11/29 00:33:43;;;;;;;36.90;33.10;;;3.40;1.00;5.10;98932.00;;;;4995594;28;20477;-80
2021/11/29 00:36:14;;;;;;;40.80;36.40;;;3.40;1.00;5.20;98973.00;;;;4995784;28;20455;-80
2021/11/29 00:38:44;;;;;;;44.87;40.07;;;3.50;1.00;5.20;98967.00;;;;4984123;28;20530;-80
2021/11/29 00:41:12;;;;;;;39.70;35.67;;;3.40;1.00;5.20;98967.00;;;;4980210;28;20472;-80
2021/11/29 00:43:41;;;;;;;42.43;37.87;;;3.40;1.00;5.10;98951.00;;;;4979515;28;20536;-79
2021/11/29 00:46:10;;;;;;;40.80;36.00;;;3.40;1.00;5.20;98972.00;;;;4977672;28;20447;-80
2021/11/29 00:48:40;;;;;;;40.50;36.27;;;3.40;1.00;5.20;98996.00;;;;4979950;28;21008;-80
2021/11/29 00:51:09;;;;;;;46.07;38.93;;;3.40;1.00;5.20;98960.00;;;;4978143;28;20472;-78
2021/11/29 00:53:37;;;;;;;46.97;40.93;;;3.40;1.00;5.20;98979.00;;;;5001900;28;20451;-79
2021/11/29 00:56:06;;;;;;;42.90;38.50;;;3.40;1.00;5.20;98974.00;;;;4985540;28;20459;-79
2021/11/29 00:58:35;;;;;;;38.50;34.53;;;3.40;1.00;5.10;98962.00;;;;4985141;28;20451;-80
2021/11/29 01:01:04;;;;;;;38.63;34.77;;;3.40;1.00;5.10;98983.00;;;;4981049;28;20571;-81
2021/11/29 01:03:33;;;;;;;38.17;34.27;;;3.40;1.00;5.10;98972.00;;;;5006422;28;20428;-80
2021/11/29 01:06:03;;;;;;;38.43;34.33;;;3.40;1.00;5.10;98973.00;;;;4994636;28;20483;-80
2021/11/29 01:08:32;;;;;;;37.67;33.97;;;3.40;1.00;5.10;98989.00;;;;4993364;28;20439;-80
2021/11/29 01:11:01;;;;;;;37.63;33.80;;;3.40;1.00;5.10;98988.00;;;;4995097;28;20502;-79
2021/11/29 01:13:30;;;;;;;41.23;34.67;;;3.40;1.00;5.20;98981.00;;;;4990733;28;20479;-78
2021/11/29 01:15:59;;;;;;;37.70;33.80;;;3.50;1.00;5.20;99006.00;;;;4989428;28;20476;-81
2021/11/29 01:18:27;;;;;;;38.33;34.23;;;3.50;1.00;5.20;99010.00;;;;4990512;28;20460;-80
2021/11/29 01:20:56;;;;;;;37.23;33.57;;;3.60;1.00;5.30;98993.00;;;;4989147;28;20490;-80
2021/11/29 01:23:27;;;;;;;34.63;31.13;;;3.60;1.00;5.30;99019.00;;;;4992304;28;20523;-79
2021/11/29 01:25:55;;;;;;;38.20;34.37;;;3.60;1.00;5.20;99009.00;;;;4982703;28;20459;-79
2021/11/29 01:28:24;;;;;;;39.13;35.13;;;3.60;1.00;5.30;99006.00;;;;4979649;28;20459;-79
2021/11/29 01:30:53;;;;;;;36.63;32.90;;;3.60;1.00;5.20;99002.00;;;;4986802;28;20487;-79
2021/11/29 01:33:22;;;;;;;37.27;33.57;;;3.60;1.00;5.30;99032.00;;;;4977055;28;20516;-79
2021/11/29 01:35:50;;;;;;;42.33;37.60;;;3.70;1.00;5.30;99005.00;;;;4994886;28;20452;-79
2021/11/29 01:38:19;;;;;;;43.50;37.87;;;3.60;1.00;5.20;99030.00;;;;4998285;28;20470;-79
2021/11/29 01:40:49;;;;;;;51.60;41.47;;;3.50;1.00;5.20;99032.00;;;;4990068;28;20515;-79
2021/11/29 01:43:20;;;;;;;62.37;52.63;;;3.40;1.00;5.00;99026.00;;;;4998622;28;20523;-80
2021/11/29 01:45:52;;;;;;;53.53;46.30;;;3.30;1.00;4.90;98972.00;;;;5012409;28;20459;-80
2021/11/29 01:48:22;;;;;;;54.03;44.20;;;3.30;1.00;4.90;99027.00;;;;4999161;28;20445;-80
2021/11/29 01:50:55;;;;;;;46.47;41.57;;;3.30;1.00;4.90;99018.00;;;;4985783;28;20491;-80
2021/11/29 01:53:27;;;;;;;47.07;41.97;;;3.20;1.00;4.80;99043.00;;;;4975103;28;20459;-79
2021/11/29 01:55:58;;;;;;;40.53;36.47;;;3.30;1.00;4.80;99036.00;;;;4976070;28;20458;-78
2021/11/29 01:58:30;;;;;;;47.00;41.90;;;3.20;1.00;4.80;99040.00;;;;4970846;28;20514;-79
2021/11/29 02:01:03;;;;;;;49.40;43.87;;;3.10;1.00;4.70;99036.00;;;;4973605;28;20482;-79
2021/11/29 02:03:32;;;;;;;44.10;39.33;;;3.20;1.00;4.70;99009.00;;;;4974479;28;20595;-78
2021/11/29 02:06:01;;;;;;;37.97;34.03;;;3.20;1.00;4.70;99028.00;;;;4973307;28;20452;-79
2021/11/29 02:08:30;;;;;;;40.20;36.17;;;3.20;1.00;4.80;99034.00;;;;4974466;28;20519;-80
2021/11/29 02:11:01;;;;;;;40.00;35.70;;;3.40;1.00;4.80;99040.00;;;;4971689;28;20518;-79
2021/11/29 02:13:29;;;;;;;37.87;34.00;;;3.30;1.00;4.80;99012.00;;;;4983519;28;20466;-80
2021/11/29 02:15:58;;;;;;;39.07;35.10;;;3.30;1.00;4.90;99028.00;;;;4992181;28;20458;-82
2021/11/29 02:18:32;;;;;;;41.90;37.50;;;3.40;1.00;4.90;99020.00;;;;4969674;28;20459;-80
2021/11/29 02:21:07;;;;;;;41.57;37.10;;;3.30;1.00;4.90;99058.00;;;;4986637;28;20482;-79
2021/11/29 02:23:38;;;;;;;48.93;41.60;;;3.30;1.00;4.90;99052.00;;;;4990028;28;20474;-79
2021/11/29 02:26:07;;;;;;;40.77;36.50;;;3.30;1.00;4.90;99065.00;;;;4969974;28;20474;-80
2021/11/29 02:28:42;;;;;;;35.40;31.90;;;3.20;1.00;4.90;98992.00;;;;4976409;28;21049;-80
2021/11/29 02:31:15;;;;;;;44.03;39.40;;;3.20;1.00;4.90;99042.00;;;;4972798;28;20510;-80
2021/11/29 02:33:44;;;;;;;42.03;37.50;;;3.20;1.00;4.90;99027.00;;;;5000111;28;20466;-80
2021/11/29 02:36:13;;;;;;;30.53;27.40;;;3.20;1.00;4.80;99004.00;;;;4969784;28;20476;-78
2021/11/29 02:38:42;;;;;;;29.83;26.70;;;3.20;1.00;4.70;99002.00;;;;4982128;28;20452;-80
2021/11/29 02:41:10;;;;;;;28.83;25.73;;;3.20;1.00;4.60;99021.00;;;;4959102;28;20495;-79
2021/11/29 02:43:39;;;;;;;28.40;24.33;;;3.20;1.00;4.60;99058.00;;;;4993019;28;20458;-80
2021/11/29 02:46:07;;;;;;;30.97;26.73;;;3.20;1.00;4.70;99058.00;;;;4989883;28;20448;-79
2021/11/29 02:48:43;;;;;;;32.57;29.07;;;3.20;1.00;4.70;99056.00;;;;4998547;28;20456;-81
2021/11/29 02:51:29;;;;;;;35.57;31.77;;;3.30;1.00;4.70;99051.00;;;;4979427;28;20489;-80
2021/11/29 02:54:04;;;;;;;33.53;30.10;;;3.30;1.00;4.80;99060.00;;;;4976072;28;20542;-80
2021/11/29 02:56:36;;;;;;;33.33;29.87;;;3.30;1.00;4.80;99043.00;;;;4991733;28;20483;-79
2021/11/29 02:59:08;;;;;;;24.27;19.60;;;3.20;1.00;4.70;99061.00;;;;4996578;28;20545;-81
2021/11/29 03:01:37;;;;;;;18.50;15.23;;;3.20;1.00;4.60;99056.00;;;;4983181;28;20502;-80
2021/11/29 03:04:06;;;;;;;14.73;12.20;;;3.20;1.00;4.50;99040.00;;;;4983298;28;20552;-80
2021/11/29 03:06:36;;;;;;;17.60;15.47;;;3.20;1.00;4.50;99082.00;;;;4988842;28;20450;-81
2021/11/29 03:09:06;;;;;;;16.57;14.67;;;3.30;1.00;4.30;99087.00;;;;4970290;28;20455;-79
2021/11/29 03:11:35;;;;;;;14.83;13.27;;;3.20;1.00;4.40;99093.00;;;;4953099;28;20500;-79
2021/11/29 03:14:04;;;;;;;15.53;11.23;;;3.20;1.00;4.40;99083.00;;;;4988907;28;20452;-79
2021/11/29 03:16:33;;;;;;;11.07;9.97;;;3.20;1.00;4.30;99074.00;;;;4987790;28;20483;-78
2021/11/29 03:19:02;;;;;;;13.83;12.30;;;3.30;1.00;4.40;99094.00;;;;4991188;28;20606;-79
2021/11/29 03:21:31;;;;;;;13.43;11.67;;;3.30;1.00;4.40;99075.00;;;;4971333;28;20471;-80
2021/11/29 03:24:04;;;;;;;13.60;11.47;;;3.30;1.00;4.50;99103.00;;;;4973088;28;21106;-78
2021/11/29 03:26:34;;;;;;;15.77;13.63;;;3.30;1.00;4.40;99076.00;;;;4968402;28;20484;-79
2021/11/29 03:29:06;;;;;;;13.97;12.00;;;3.30;1.00;4.40;99106.00;;;;4985109;28;20456;-79
2021/11/29 03:31:35;;;;;;;12.67;10.30;;;3.30;1.00;4.40;99058.00;;;;4993061;28;20471;-80
2021/11/29 03:34:07;;;;;;;12.67;10.87;;;3.30;1.00;4.30;99105.00;;;;4979136;28;20514;-78
2021/11/29 03:36:39;;;;;;;13.20;11.77;;;3.30;1.00;4.30;99080.00;;;;4976419;28;20984;-79
2021/11/29 03:39:13;;;;;;;13.87;11.50;;;3.20;1.00;4.30;99103.00;;;;4973830;28;20448;-79
2021/11/29 03:41:44;;;;;;;13.73;10.90;;;3.20;1.00;4.20;99097.00;;;;4989779;28;20474;-79
2021/11/29 03:44:13;;;;;;;14.13;10.77;;;3.30;1.00;4.20;99077.00;;;;4984662;28;20494;-79
2021/11/29 03:46:42;;;;;;;16.10;10.40;;;3.20;1.00;4.20;99062.00;;;;4980628;28;20455;-79
2021/11/29 03:49:11;;;;;;;16.03;11.23;;;3.20;1.00;4.20;99083.00;;;;4973570;28;20551;-80
2021/11/29 03:51:40;;;;;;;15.00;10.83;;;3.20;1.00;4.20;99124.00;;;;4969375;28;20485;-79
2021/11/29 03:54:10;;;;;;;10.40;8.73;;;3.30;1.00;4.10;99077.00;;;;4990173;28;20456;-80
2021/11/29 03:56:39;;;;;;;13.90;10.50;;;3.10;1.00;4.00;99097.00;;;;4984730;28;20434;-79
2021/11/29 03:59:08;;;;;;;14.57;10.97;;;3.00;1.00;4.00;99109.00;;;;4982600;28;20472;-79
2021/11/29 04:01:36;;;;;;;11.67;10.33;;;3.00;1.00;3.90;99116.00;;;;4995268;28;20472;-79
2021/11/29 04:04:06;;;;;;;10.50;9.40;;;2.90;1.00;3.90;99112.00;;;;4997929;28;20550;-79
2021/11/29 04:06:34;;;;;;;13.73;10.53;;;2.90;1.00;3.80;99125.00;;;;4980383;28;20458;-79
2021/11/29 04:09:05;;;;;;;12.70;10.63;;;2.80;1.00;3.80;99127.00;;;;4970263;28;20496;-79
2021/11/29 04:11:35;;;;;;;13.20;10.37;;;2.80;1.00;3.80;99112.00;;;;4972636;28;20508;-79
2021/11/29 04:14:04;;;;;;;13.83;11.50;;;2.80;1.00;3.80;99123.00;;;;4962521;29;20536;-79
2021/11/29 04:16:33;;;;;;;16.73;10.80;;;2.70;1.00;3.80;99119.00;;;;4968107;28;20454;-79
2021/11/29 04:19:02;;;;;;;14.33;10.30;;;2.60;1.00;3.70;99147.00;;;;4992703;28;20450;-79
2021/11/29 04:21:31;;;;;;;11.53;8.60;;;2.60;1.00;3.70;99098.00;;;;4984632;28;20499;-79
2021/11/29 04:23:59;;;;;;;11.37;8.50;;;2.60;1.00;3.70;99141.00;;;;4979551;28;20547;-78
2021/11/29 04:26:29;;;;;;;14.70;10.13;;;2.60;1.00;3.70;99149.00;;;;4971442;28;20451;-79
2021/11/29 04:29:05;;;;;;;13.40;8.40;;;2.60;1.00;3.60;99148.00;;;;4996060;28;20452;-79
2021/11/29 04:31:33;;;;;;;14.50;9.70;;;2.70;1.00;3.60;99122.00;;;;4988678;28;20553;-79
2021/11/29 04:34:02;;;;;;;14.53;10.10;;;2.60;1.00;3.50;99151.00;;;;4999616;28;20459;-78
2021/11/29 04:36:30;;;;;;;12.73;8.27;;;2.50;1.00;3.40;99143.00;;;;4977931;28;20447;-78
2021/11/29 04:38:58;;;;;;;10.77;7.70;;;2.50;1.00;3.20;99093.00;;;;4973844;28;20491;-79
2021/11/29 04:41:27;;;;;;;11.70;9.47;;;2.50;1.00;3.40;99153.00;;;;4963492;28;20491;-79
2021/11/29 04:43:55;;;;;;;10.20;9.20;;;2.50;1.00;3.40;99185.00;;;;5013140;23;20532;-73
2021/11/29 04:46:25;;;;;;;15.20;9.40;;;2.60;1.00;3.40;99165.00;;;;5006453;28;20540;-74
2021/11/29 04:48:54;;;;;;;11.90;10.27;;;2.50;1.00;3.30;99073.00;;;;5016757;28;20480;-74
2021/11/29 04:51:22;;;;;;;12.63;9.37;;;2.40;1.00;3.40;99172.00;;;;5020359;28;20450;-75
2021/11/29 04:53:51;;;;;;;11.73;9.83;;;2.40;1.00;3.30;99162.00;;;;5003355;28;20483;-75
2021/11/29 04:56:20;;;;;;;10.80;8.70;;;2.40;1.00;3.40;99179.00;;;;5005827;28;20515;-74
2021/11/29 04:58:48;;;;;;;11.17;9.30;;;2.40;1.00;3.40;98950.00;;;;4992966;28;20447;-77
2021/11/29 05:01:17;;;;;;;23.40;16.40;;;2.40;1.00;3.40;99198.00;;;;4994301;28;20474;-74
2021/11/29 05:03:47;;;;;;;11.90;10.07;;;2.40;1.00;3.40;99171.00;;;;4993367;28;20472;-74
2021/11/29 05:06:15;;;;;;;10.47;9.07;;;2.40;1.00;3.40;99133.00;;;;4995442;28;20458;-74
2021/11/29 05:08:44;;;;;;;12.50;8.20;;;2.40;1.00;3.40;99155.00;;;;4993676;28;20998;-74
2021/11/29 05:11:13;;;;;;;11.80;9.07;;;2.40;1.00;3.40;99180.00;;;;4994186;28;20602;-75
2021/11/29 05:13:41;;;;;;;11.23;8.37;;;2.30;1.00;3.40;99200.00;;;;5015691;28;20480;-74
2021/11/29 05:16:10;;;;;;;10.90;8.07;;;2.40;1.00;3.20;99147.00;;;;4996683;28;20518;-76
2021/11/29 05:18:39;;;;;;;9.60;8.60;;;2.50;1.00;3.40;99223.00;;;;5001423;28;20477;-75
2021/11/29 05:21:09;;;;;;;15.77;9.70;;;2.60;1.00;3.40;99161.00;;;;4999715;28;20466;-75
2021/11/29 05:23:37;;;;;;;11.70;8.90;;;2.50;1.00;3.40;99200.00;;;;4993746;28;20481;-76
2021/11/29 05:26:05;;;;;;;13.80;9.43;;;2.50;1.00;3.40;99241.00;;;;4994395;28;20855;-75
2021/11/29 05:28:35;;;;;;;13.20;10.33;;;2.50;1.00;3.30;99209.00;;;;5010067;28;20454;-75
2021/11/29 05:31:03;;;;;;;13.40;9.93;;;2.40;1.00;3.30;99215.00;;;;4987682;28;20940;-75
2021/11/29 05:33:32;;;;;;;10.90;9.47;;;2.40;1.00;3.30;99213.00;;;;4992656;28;20475;-74
2021/11/29 05:36:00;;;;;;;12.50;10.17;;;2.40;1.00;3.30;99198.00;;;;4989245;28;20459;-74
2021/11/29 05:38:31;;;;;;;11.17;9.73;;;2.40;1.00;3.30;99230.00;;;;5004407;28;20621;-74
2021/11/29 05:41:00;;;;;;;10.70;8.93;;;2.40;1.00;3.30;99251.00;;;;4986895;28;20609;-75
2021/11/29 05:43:30;;;;;;;14.80;9.30;;;2.40;1.00;3.30;99226.00;;;;4974708;28;20483;-74
2021/11/29 05:46:00;;;;;;;13.07;9.80;;;2.40;1.00;3.30;99235.00;;;;4976105;28;20452;-74
2021/11/29 05:48:30;;;;;;;12.93;10.23;;;2.40;1.00;3.30;99257.00;;;;5009977;28;20451;-74
2021/11/29 05:51:00;;;;;;;12.27;9.60;;;2.40;1.00;3.30;99140.00;;;;4990511;28;20451;-73
2021/11/29 05:53:29;;;;;;;15.10;9.97;;;2.40;1.00;3.30;99246.00;;;;4999169;28;20470;-74
2021/11/29 05:56:02;;;;;;;12.90;10.20;;;2.40;1.00;3.10;99246.00;;;;4997444;28;20461;-74
2021/11/29 05:58:30;;;;;;;15.60;11.73;;;2.40;1.00;3.30;99230.00;;;;5020293;28;20462;-76
2021/11/29 06:00:59;;;;;;;15.63;12.27;;;2.30;1.00;3.30;99227.00;;;;4999075;28;20964;-74
2021/11/29 06:03:28;;;;;;;13.83;12.10;;;2.30;1.00;3.20;99261.00;;;;5015197;28;20484;-76
2021/11/29 06:05:56;;;;;;;14.00;12.50;;;2.30;1.00;3.20;99248.00;;;;5023769;28;20511;-73
2021/11/29 06:08:25;;;;;;;15.43;13.33;;;2.30;1.00;3.20;99273.00;;;;5016114;28;20507;-74
2021/11/29 06:10:53;;;;;;;15.07;13.40;;;2.30;1.00;3.20;99265.00;;;;4992781;28;20451;-74
2021/11/29 06:13:23;;;;;;;19.67;13.53;;;2.20;1.00;3.20;99100.00;;;;4989352;28;20533;-75
2021/11/29 06:15:53;;;;;;;16.37;14.13;;;2.20;1.00;3.20;99258.00;;;;5000620;28;20499;-75
2021/11/29 06:18:25;;;;;;;18.77;16.77;;;2.20;1.00;3.10;99263.00;;;;4995377;28;20454;-74
2021/11/29 06:20:53;;;;;;;18.80;15.97;;;2.20;1.00;3.10;99287.00;;;;4996858;28;20455;-74
2021/11/29 06:23:22;;;;;;;22.97;17.00;;;2.20;1.00;3.00;99284.00;;;;4994596;28;20479;-74
2021/11/29 06:25:50;;;;;;;20.47;18.37;;;2.20;1.00;3.00;99287.00;;;;4992455;28;20477;-74
2021/11/29 06:28:19;;;;;;;20.00;17.90;;;2.20;1.00;3.00;99304.00;;;;4998819;28;20458;-76
2021/11/29 06:30:49;;;;;;;21.10;18.80;;;2.10;1.00;3.00;99297.00;;;;4999734;28;20527;-75
2021/11/29 06:33:17;;;;;;;22.70;20.40;;;2.20;1.00;3.00;99304.00;;;;4996098;28;20482;-76
2021/11/29 06:35:46;;;;;;;22.87;20.47;;;2.20;1.00;3.10;99321.00;;;;4998997;28;20821;-74
2021/11/29 06:38:14;;;;;;;22.40;20.00;;;2.20;1.00;3.10;99309.00;;;;4999678;28;20525;-78
2021/11/29 06:40:49;;;;;;;23.20;20.67;;;2.20;1.00;3.10;99273.00;;;;5019320;28;20518;-75
2021/11/29 06:43:18;;;;;;;28.83;21.53;;;2.20;1.00;3.20;99311.00;;;;5031057;28;20513;-76
2021/11/29 06:45:51;;;;;;;27.00;23.00;;;2.20;1.00;3.20;99292.00;;;;5014433;28;20466;-77
2021/11/29 06:48:21;;;;;;;24.73;21.63;;;2.40;1.00;3.20;99354.00;;;;5016112;28;20447;-76
2021/11/29 06:50:51;;;;;;;27.57;22.03;;;2.20;1.00;3.10;99335.00;;;;5015386;28;20457;-75
2021/11/29 06:53:19;;;;;;;27.07;21.33;;;2.30;1.00;3.20;99288.00;;;;5013547;28;20545;-79
2021/11/29 06:55:48;;;;;;;24.47;22.00;;;2.30;1.00;3.20;99200.00;;;;5037538;28;20446;-75
2021/11/29 06:58:17;;;;;;;27.23;21.60;;;2.30;1.00;3.20;99215.00;;;;5039297;28;20451;-75
2021/11/29 07:00:46;;;;;;;23.93;21.43;;;2.30;1.00;3.20;99337.00;;;;5021727;28;20442;-74
2021/11/29 07:03:16;;;;;;;29.23;23.00;;;2.30;1.00;3.20;99334.00;;;;5017826;28;20485;-74
2021/11/29 07:05:44;;;;;;;27.20;23.23;;;2.30;1.00;3.20;99337.00;;;;5012583;28;20478;-73
2021/11/29 07:08:13;;;;;;;25.90;23.00;;;2.30;1.00;3.20;99346.00;;;;4999645;28;20455;-73
2021/11/29 07:10:42;;;;;;;26.17;21.57;;;2.40;1.00;3.20;99344.00;;;;4982067;28;20463;-74
2021/11/29 07:13:13;;;;;;;24.07;21.47;;;2.30;1.00;3.10;99358.00;;;;4990914;28;21013;-74
2021/11/29 07:15:43;;;;;;;25.03;22.40;;;2.40;1.00;3.20;99356.00;;;;5001941;28;20478;-75
2021/11/29 07:18:15;;;;;;;24.87;22.20;;;2.40;1.00;3.30;99348.00;;;;5001406;28;20480;-74
2021/11/29 07:20:44;;;;;;;24.27;21.60;;;2.40;1.00;3.40;99339.00;;;;4984797;28;20459;-74
2021/11/29 07:23:13;;;;;;;26.63;22.20;;;2.50;1.00;3.40;99379.00;;;;4992392;28;21054;-75
2021/11/29 07:25:41;;;;;;;23.03;20.50;;;2.50;1.00;3.50;99326.00;;;;4995392;28;20446;-75
2021/11/29 07:28:10;;;;;;;25.07;22.10;;;2.60;1.00;3.60;99397.00;;;;5002825;28;20464;-75
2021/11/29 07:30:38;;;;;;;24.03;21.50;;;2.70;1.00;3.70;99379.00;;;;4996294;28;20982;-74
2021/11/29 07:33:07;;;;;;;24.80;22.03;;;2.70;1.00;3.80;99319.00;;;;4988428;28;20476;-75
2021/11/29 07:35:37;;;;;;;23.30;20.47;;;2.90;1.00;3.80;99376.00;;;;5010678;28;20454;-75
2021/11/29 07:38:06;;;;;;;22.63;20.30;;;2.90;1.00;3.90;99400.00;;;;5004617;28;20457;-75
2021/11/29 07:40:35;;;;;;;22.93;20.13;;;2.90;1.00;3.90;99396.00;;;;4991719;28;20490;-73
2021/11/29 07:43:06;;;;;;;24.33;20.37;;;3.00;1.00;3.90;99393.00;;;;5003715;28;20596;-73
2021/11/29 07:45:36;;;;;;;21.57;19.30;;;3.00;1.00;3.90;99392.00;;;;4992933;28;20947;-73
2021/11/29 07:48:06;;;;;;;20.33;18.17;;;3.10;1.00;4.10;99417.00;;;;4995331;28;20489;-74
2021/11/29 07:50:36;;;;;;;24.17;18.60;;;3.20;1.00;3.90;99412.00;;;;4997104;28;21010;-74
2021/11/29 07:53:05;;;;;;;21.87;18.20;;;3.20;1.00;4.20;99431.00;;;;5006525;28;20447;-75
2021/11/29 07:55:34;;;;;;;21.13;19.03;;;3.30;1.00;4.30;99423.00;;;;5015014;28;20494;-73
2021/11/29 07:58:04;;;;;;;21.30;18.80;;;3.30;1.00;4.40;99414.00;;;;5004679;28;20754;-73
2021/11/29 08:00:36;;;;;;;23.60;19.00;;;3.40;1.00;4.40;99401.00;;;;4990170;28;20458;-73
2021/11/29 08:03:07;;;;;;;20.63;18.53;;;3.40;1.00;4.40;99417.00;;;;4997538;28;20509;-73
2021/11/29 08:05:39;;;;;;;22.07;19.67;;;3.40;1.00;4.40;99441.00;;;;5023943;28;20444;-76
2021/11/29 08:08:10;;;;;;;21.93;17.90;;;3.50;1.00;4.50;99444.00;;;;5007773;28;20440;-74
2021/11/29 08:10:40;;;;;;;19.93;17.30;;;3.50;1.00;4.50;99466.00;;;;5018907;28;20458;-74
2021/11/29 08:13:13;;;;;;;20.73;17.93;;;3.60;1.00;4.40;99415.00;;;;5018101;28;20466;-74
2021/11/29 08:15:41;;;;;;;19.20;17.30;;;3.60;1.00;4.40;99415.00;;;;5020209;28;20471;-78
2021/11/29 08:18:11;;;;;;;23.97;18.57;;;3.60;1.00;4.50;99449.00;;;;5018324;28;20497;-80
2021/11/29 08:20:43;;;;;;;20.73;18.47;;;3.60;1.00;4.60;99458.00;;;;5017488;28;20510;-77
2021/11/29 08:23:11;;;;;;;20.30;17.13;;;3.70;1.00;4.70;99466.00;;;;5019623;28;20474;-78
2021/11/29 08:25:41;;;;;;;20.70;18.60;;;3.70;1.00;4.70;99462.00;;;;5018926;28;20487;-78
2021/11/29 08:28:10;;;;;;;21.40;18.50;;;3.80;1.00;4.70;99457.00;;;;5019536;28;20442;-78
2021/11/29 08:30:40;;;;;;;21.40;16.97;;;3.80;1.00;4.70;99476.00;;;;5014540;28;20451;-79
2021/11/29 08:33:12;;;;;;;20.60;18.40;;;3.70;1.00;4.70;99468.00;;;;5020425;28;20459;-77
2021/11/29 08:35:44;;;;;;;19.60;17.40;;;3.70;1.00;4.60;99461.00;;;;5023650;28;20482;-74
2021/11/29 08:38:13;;;;;;;21.70;17.60;;;3.70;1.00;4.70;99482.00;;;;5025364;28;20466;-74
2021/11/29 08:40:42;;;;;;;20.60;17.17;;;3.70;1.00;4.70;99472.00;;;;5024998;28;20443;-79
2021/11/29 08:43:14;;;;;;;19.17;17.17;;;3.70;1.00;4.70;99483.00;;;;5019731;28;20562;-74
2021/11/29 08:45:42;;;;;;;18.13;16.23;;;3.70;1.00;4.80;99478.00;;;;4999117;28;20465;-73
2021/11/29 08:48:12;;;;;;;19.40;17.47;;;3.80;1.00;4.80;99483.00;;;;5013144;28;20483;-73
2021/11/29 08:50:46;;;;;;;18.47;16.50;;;3.80;1.00;4.90;99484.00;;;;5014683;28;20506;-73
2021/11/29 08:53:20;;;;;;;19.37;17.37;;;3.90;1.00;4.80;99485.00;;;;5002480;28;20518;-73
2021/11/29 08:55:50;;;;;;;18.90;16.93;;;3.90;1.00;4.90;99485.00;;;;4995337;28;20461;-73
2021/11/29 08:58:19;;;;;;;19.43;17.53;;;3.90;1.00;4.90;99500.00;;;;4995220;28;20889;-72
2021/11/29 09:00:53;;;;;;;18.37;16.77;;;3.90;1.00;5.00;99487.00;;;;4999574;28;20462;-76
2021/11/29 09:03:22;;;;;;;17.90;16.17;;;4.00;1.00;5.00;99500.00;;;;4995067;28;20536;-74
2021/11/29 09:05:53;;;;;;;19.50;17.33;;;4.10;1.00;5.20;99486.00;;;;4991807;28;20457;-72
2021/11/29 09:08:22;;;;;;;16.57;14.97;;;4.30;1.00;5.60;99489.00;;;;4997878;28;21114;-75
2021/11/29 09:10:51;;;;;;;16.87;15.27;;;4.60;1.00;5.80;99485.00;;;;4994351;28;20553;-73
2021/11/29 09:13:40;;;;;;;16.97;15.17;;;4.80;1.00;6.10;99488.00;;;;4997125;28;20478;-73
2021/11/29 09:16:10;;;;;;;16.10;14.43;;;5.10;1.00;6.20;99500.00;;;;4981851;28;20542;-74
2021/11/29 09:18:40;;;;;;;15.60;13.87;;;5.20;1.00;6.40;99496.00;;;;4987998;28;20447;-73
2021/11/29 09:21:11;;;;;;;13.93;12.50;;;5.40;1.00;6.40;99468.00;;;;4996989;28;20856;-76
2021/11/29 09:23:42;;;;;;;14.20;12.70;;;5.50;1.00;6.20;99503.00;;;;5001187;28;20481;-76
2021/11/29 09:26:11;;;;;;;14.30;12.63;;;5.40;1.00;6.30;99497.00;;;;5006190;28;20458;-74
2021/11/29 09:28:40;;;;;;;15.73;14.10;;;5.40;1.00;6.30;99513.00;;;;5013661;28;20545;-77
2021/11/29 09:31:11;;;;;;;14.13;12.63;;;5.40;1.00;6.20;99500.00;;;;5004502;28;20449;-75
2021/11/29 09:33:41;;;;;;;14.20;12.80;;;5.30;1.00;6.20;99504.00;;;;4994589;28;20470;-76
2021/11/29 09:36:11;;;;;;;14.10;12.20;;;5.20;1.00;6.10;99495.00;;;;5003978;28;20460;-73
2021/11/29 09:38:40;;;;;;;14.33;12.83;;;5.00;1.00;6.10;99501.00;;;;4998895;28;21262;-74
2021/11/29 09:41:09;;;;;;;15.23;13.20;;;5.00;1.00;6.00;99520.00;;;;5010528;28;20560;-75
2021/11/29 09:43:39;;;;;;;15.47;13.87;;;4.90;1.00;6.10;99522.00;;;;5012619;28;21003;-77
2021/11/29 09:46:08;;;;;;;17.63;14.20;;;4.90;1.00;6.10;99546.00;;;;4993014;28;20524;-74
2021/11/29 09:48:38;;;;;;;20.80;13.57;;;4.90;1.00;6.00;99500.00;;;;5010690;28;20538;-74
2021/11/29 09:51:28;;;;;;;18.40;13.10;;;4.90;1.00;6.20;99530.00;;;;4992300;28;20452;-74
2021/11/29 09:53:57;;;;;;;15.40;11.70;;;5.10;1.00;6.10;99516.00;;;;4995903;28;20502;-74
2021/11/29 09:56:26;;;;;;;14.40;11.53;;;5.30;1.00;6.10;99542.00;;;;5007392;28;20493;-73
2021/11/29 09:58:54;;;;;;;13.73;10.83;;;5.20;1.00;6.20;99541.00;;;;5012188;28;20522;-74
2021/11/29 10:01:23;;;;;;;14.73;11.30;;;5.10;1.00;6.20;99549.00;;;;4985482;28;21098;-74
2021/11/29 10:04:07;;;;;;;13.70;9.93;;;5.00;1.00;6.00;99538.00;;;;4989312;28;20485;-74
2021/11/29 10:06:38;;;;;;;14.00;10.57;;;5.00;1.00;6.50;99512.00;;;;4990584;28;20481;-73
2021/11/29 10:09:32;;;;;;;17.23;10.87;;;5.30;1.00;6.80;99534.00;;;;5007005;28;20462;-74
2021/11/29 10:12:25;;;;;;;15.07;10.70;;;5.70;1.00;6.90;99527.00;;;;4979966;28;20459;-74
2021/11/29 10:15:21;;;;;;;12.80;10.40;;;5.70;1.00;6.90;99536.00;;;;4988500;28;20529;-78
2021/11/29 10:17:58;;;;;;;11.07;9.87;;;5.70;1.00;6.90;99526.00;;;;4989547;28;20448;-74
2021/11/29 10:20:50;;;;;;;12.90;10.10;;;5.70;1.00;7.10;99520.00;;;;4993459;28;20450;-75
2021/11/29 10:23:32;;;;;;;14.30;9.97;;;5.80;1.00;7.10;99545.00;;;;4981968;28;20482;-74
2021/11/29 10:26:04;;;;;;;13.00;8.80;;;5.80;1.00;6.90;99543.00;;;;4996328;28;20539;-73
2021/11/29 10:28:36;;;;;;;12.10;9.47;;;5.70;1.00;6.60;99482.00;;;;4995075;28;20447;-73
2021/11/29 10:31:27;;;;;;;9.80;8.80;;;5.60;1.00;6.60;99516.00;;;;4997901;28;20833;-73
2021/11/29 10:34:01;;;;;;;11.03;9.00;;;5.50;1.00;6.50;99538.00;;;;4990966;28;20505;-77
2021/11/29 10:36:33;;;;;;;12.43;8.90;;;5.40;1.00;6.60;99531.00;;;;4989407;28;20438;-77
2021/11/29 10:39:09;;;;;;;9.87;8.27;;;5.40;1.00;6.40;99531.00;;;;4994300;28;20537;-73
2021/11/29 10:41:41;;;;;;;10.67;9.00;;;5.30;1.00;6.50;99537.00;;;;4996649;28;20454;-73
2021/11/29 10:44:13;;;;;;;10.60;9.50;;;5.30;1.00;6.40;99536.00;;;;4987117;28;20565;-73
2021/11/29 10:46:46;;;;;;;13.93;8.80;;;5.20;1.00;6.50;99544.00;;;;5000277;28;20491;-74
2021/11/29 10:49:18;;;;;;;12.27;8.73;;;5.20;1.00;6.40;99543.00;;;;5011001;28;20868;-75
2021/11/29 10:51:50;;;;;;;11.27;8.80;;;5.20;1.00;6.30;99525.00;;;;4999398;28;20458;-76
2021/11/29 10:54:23;;;;;;;12.17;9.80;;;5.10;1.00;6.20;99553.00;;;;4994705;28;20508;-73
2021/11/29 10:56:55;;;;;;;15.37;8.50;;;5.10;1.00;6.30;99536.00;;;;4993325;28;21014;-73
2021/11/29 10:59:28;;;;;;;15.40;9.40;;;5.00;1.00;6.30;99548.00;;;;4995818;28;20463;-74
2021/11/29 11:02:00;;;;;;;9.67;8.67;;;5.00;1.00;6.30;99525.00;;;;4995843;28;20444;-74
2021/11/29 11:04:30;;;;;;;13.80;8.97;;;5.00;1.00;6.30;99563.00;;;;5004621;28;20531;-74
2021/11/29 11:07:02;;;;;;;9.80;7.70;;;5.10;1.00;6.30;99526.00;;;;5008681;28;20457;-75
2021/11/29 11:09:36;;;;;;;15.33;9.17;;;5.20;1.00;6.30;99573.00;;;;5014714;28;20475;-74
2021/11/29 11:12:07;;;;;;;11.93;8.43;;;5.10;1.00;6.30;99545.00;;;;5018042;28;20457;-77
2021/11/29 11:14:40;;;;;;;12.70;7.40;;;5.10;1.00;6.40;99590.00;;;;5003078;28;20473;-74
2021/11/29 11:17:31;;;;;;;10.33;8.00;;;5.20;1.00;6.50;99546.00;;;;5010162;28;20442;-74
2021/11/29 11:20:03;;;;;;;12.07;8.20;;;5.20;1.00;6.30;99580.00;;;;5003733;28;20458;-75